Flight Track Log - Related Links

Times and Time Zones

All times are in EDT time to prevent confusion due to time zone crossing. See the SWA662 flight status page for this flight to view local times or setup timezone preferences in your user account.

Time Position Orientation Groundspeed Altitude Reporting Facility
EDT Latitude Longitude Course Direction KTS MPH feet Rate Location/Type
Fri 12:05:07 AM 33.9453 -118.4617 231° Southwest 170 196 1,700  Level Los Angeles Center
Fri 12:06:09 AM 33.9086 -118.5153 231° Southwest 239 275 3,200 1,984 Climbing Los Angeles Center
Fri 12:07:11 AM 33.8322 -118.5089 176° South 270 311 5,800 2,758 Climbing Los Angeles Center
Fri 12:08:13 AM 33.7550 -118.5164 185° South 281 323 8,900 2,488 Climbing Los Angeles Center
Fri 12:09:14 AM 33.6856 -118.4836 159° South 297 342 10,900 1,778 Climbing Los Angeles Center
Fri 12:10:28 AM 33.6531 -118.3800 111° Southeast 337 388 12,900 2,206 Climbing Los Angeles Center
Fri 12:11:30 AM 33.6939 -118.2319 72° East 387 445 15,900 2,419 Climbing Los Angeles Center
Fri 12:12:32 AM 33.7742 -118.1408 43° Northeast 404 465 17,900 1,984 Climbing Los Angeles Center
Fri 12:13:34 AM 33.8586 -118.0444 43° Northeast 419 482 20,000 1,951 Climbing Los Angeles Center
Fri 12:14:35 AM 33.9461 -117.9439 44° Northeast 433 498 21,900 2,000 Climbing Los Angeles Center
Fri 12:15:37 AM 34.0542 -117.8167 44° Northeast 451 519 24,100 1,839 Climbing Los Angeles Center
Fri 12:16:39 AM 34.1433 -117.7075 45° Northeast 457 526 25,700 1,415 Climbing Los Angeles Center
Fri 12:17:40 AM 34.2300 -117.5858 49° Northeast 473 544 27,000 1,561 Climbing Los Angeles Center
Fri 12:18:42 AM 34.3192 -117.4650 48° Northeast 481 554 28,900 1,597 Climbing Los Angeles Center
Fri 12:19:44 AM 34.4114 -117.3389 48° Northeast 482 555 30,300 1,415 Climbing Los Angeles Center
Fri 12:20:45 AM 34.5003 -117.2153 49° Northeast 486 559 31,800 1,512 Climbing Los Angeles Center
Fri 12:21:47 AM 34.5886 -117.0947 48° Northeast 483 556 33,400 1,306 Climbing Los Angeles Center
Fri 12:22:49 AM 34.6750 -116.9736 49° Northeast 478 550 34,500 780 Climbing Los Angeles Center
Fri 12:23:50 AM 34.7814 -116.8278 48° Northeast 482 555 35,000 244 Climbing Los Angeles Center
Fri 12:24:52 AM 34.8708 -116.7014 49° Northeast 493 567 35,000  Level Los Angeles Center
Fri 12:26:06 AM 34.9611 -116.5769 48° Northeast 493 567 35,000  Level Los Angeles Center
Fri 12:27:08 AM 35.0747 -116.4350 46° Northeast 492 566 35,000  Level Los Angeles Center
Fri 12:28:09 AM 35.1678 -116.3169 46° Northeast 486 559 35,000  Level Los Angeles Center
Fri 12:29:11 AM 35.2625 -116.1997 45° Northeast 485 558 35,000  Level Los Angeles Center
Fri 12:30:12 AM 35.3553 -116.0811 46° Northeast 485 558 35,000  Level Los Angeles Center
Fri 12:31:14 AM 35.4669 -115.9406 46° Northeast 482 555 35,000  Level Los Angeles Center
Fri 12:32:16 AM 35.5508 -115.8353 46° Northeast 482 555 35,000  Level Los Angeles Center
Fri 12:33:17 AM 35.6506 -115.6819 51° Northeast 483 556 35,000  Level Los Angeles Center
Fri 12:34:19 AM 35.7086 -115.5333 64° Northeast 483 556 35,000  Level Los Angeles Center
Fri 12:35:20 AM 35.7667 -115.3858 64° Northeast 483 556 35,000  Level Los Angeles Center
Fri 12:36:22 AM 35.8242 -115.2381 64° Northeast 482 555 35,000  Level Los Angeles Center
Fri 12:37:24 AM 35.8794 -115.0939 65° Northeast 473 544 35,000  Level Los Angeles Center
Fri 12:38:25 AM 35.9358 -114.9461 65° Northeast 479 551 35,000  Level Los Angeles Center
Fri 12:39:26 AM 36.0047 -114.7681 64° Northeast 482 555 35,000  Level Los Angeles Center
Fri 12:40:28 AM 36.0600 -114.6197 65° Northeast 479 551 35,000  Level Los Angeles Center
Fri 12:41:29 AM 36.1172 -114.4714 64° Northeast 479 551 35,000  Level Los Angeles Center
Fri 12:42:31 AM 36.1736 -114.3222 65° Northeast 479 551 35,000  Level Los Angeles Center
Fri 12:43:32 AM 36.2297 -114.1739 65° Northeast 477 549 35,000  Level Los Angeles Center
Fri 12:44:34 AM 36.2850 -114.0253 65° Northeast 477 549 35,000  Level Los Angeles Center
Fri 12:45:36 AM 36.3411 -113.8775 65° Northeast 475 547 35,000  Level Los Angeles Center
Fri 12:46:37 AM 36.3961 -113.7297 65° Northeast 473 544 35,000  Level Los Angeles Center
Fri 12:47:39 AM 36.4608 -113.5531 65° Northeast 470 541 35,000  Level Los Angeles Center
Fri 12:48:40 AM 36.5131 -113.4142 65° Northeast 468 539 35,000  Level Los Angeles Center
Fri 12:49:42 AM 36.5653 -113.2675 66° East 466 536 35,000  Level Los Angeles Center
Fri 12:50:43 AM 36.6172 -113.1225 66° East 463 533 35,000  Level Los Angeles Center
Fri 12:51:45 AM 36.6706 -112.9781 65° Northeast 462 532 35,000  Level Los Angeles Center
Fri 12:52:46 AM 36.7325 -112.8058 66° East 458 527 35,000 390 Level Los Angeles Center
Fri 12:53:48 AM 36.7844 -112.6628 66° East 456 525 35,800 976 Climbing Los Angeles Center
Fri 12:54:49 AM 36.8369 -112.5175 66° East 460 529 37,000 585 Climbing Los Angeles Center
Fri 12:55:51 AM 36.8883 -112.3722 66° East 461 531 37,000  Level Los Angeles Center
Fri 12:56:52 AM 36.9400 -112.2272 66° East 461 531 37,000  Level Los Angeles Center
Fri 12:57:54 AM 36.9919 -112.0797 66° East 464 534 37,000  Level Los Angeles Center
Fri 12:58:55 AM 37.0436 -111.9353 66° East 461 531 37,000  Level Los Angeles Center
Fri 12:59:57 AM 37.1019 -111.7647 67° East 449 517 37,000  Level Los Angeles Center
Fri 01:00:58 AM 37.1508 -111.6258 66° East 441 507 37,000  Level Los Angeles Center
Fri 01:02:00 AM 37.1978 -111.4875 67° East 435 501 37,000  Level Los Angeles Center
Fri 01:03:01 AM 37.2464 -111.3497 66° East 434 499 37,000  Level Los Angeles Center
Fri 01:04:03 AM 37.2939 -111.2119 67° East 433 498 37,000  Level Los Angeles Center
Fri 01:05:13 AM 37.3478 -111.0483 67° East 428 493 37,000  Level Denver Center
Fri 01:06:13 AM 37.3953 -110.9100 67° East 431 496 37,000  Level Denver Center
Fri 01:07:14 AM 37.4417 -110.7731 67° East 428 493 37,000  Level Denver Center
Fri 01:08:15 AM 37.4878 -110.6342 67° East 430 495 37,000  Level Denver Center
Fri 01:09:16 AM 37.5361 -110.4864 68° East 432 497 37,000  Level Denver Center
Fri 01:10:16 AM 37.5806 -110.3531 67° East 432 497 37,000  Level Denver Center
Fri 01:11:17 AM 37.6325 -110.1969 67° East 432 497 37,000  Level Denver Center
Fri 01:12:18 AM 37.6761 -110.0617 68° East 433 498 37,000  Level Denver Center
Fri 01:13:18 AM 37.7206 -109.9247 68° East 439 505 37,000  Level Denver Center
Fri 01:14:19 AM 37.7731 -109.7650 67° East 440 506 37,000  Level Denver Center
Fri 01:15:20 AM 37.8178 -109.6292 67° East 438 504 37,000  Level Denver Center
Fri 01:16:20 AM 37.8617 -109.4911 68° East 440 506 37,000  Level Denver Center
Fri 01:17:21 AM 37.9053 -109.3547 68° East 438 504 37,000  Level Denver Center
Fri 01:18:21 AM 37.9564 -109.1953 68° East 438 504 37,000  Level Denver Center
Fri 01:19:22 AM 38.0000 -109.0594 68° East 436 502 37,000  Level Denver Center
Fri 01:20:22 AM 38.0428 -108.9225 68° East 436 502 37,000  Level Denver Center
Fri 01:21:23 AM 38.0942 -108.7581 68° East 442 509 37,000  Level Denver Center
Fri 01:22:23 AM 38.1361 -108.6192 69° East 442 509 37,000  Level Denver Center
Fri 01:23:24 AM 38.1803 -108.4811 68° East 441 507 37,000  Level Denver Center
Fri 01:24:24 AM 38.2306 -108.3206 68° East 440 506 37,000  Level Denver Center
Fri 01:25:25 AM 38.2731 -108.1808 69° East 442 509 37,000  Level Denver Center
Fri 01:26:25 AM 38.3158 -108.0414 69° East 442 509 37,000  Level Denver Center
Fri 01:27:26 AM 38.3744 -107.8858 64° Northeast 439 505 37,000  Level Denver Center
Fri 01:28:26 AM 38.4333 -107.7553 60° Northeast 445 512 37,000  Level Denver Center
Fri 01:29:27 AM 38.4900 -107.6250 61° Northeast 442 509 37,000  Level Denver Center
Fri 01:30:27 AM 38.5469 -107.4942 61° Northeast 441 507 37,000  Level Denver Center
Fri 01:31:28 AM 38.6150 -107.3389 61° Northeast 446 513 37,000  Level Denver Center
Fri 01:32:28 AM 38.6714 -107.2072 61° Northeast 445 512 37,000  Level Denver Center
Fri 01:33:29 AM 38.7303 -107.0717 61° Northeast 449 517 37,000  Level Denver Center
Fri 01:34:29 AM 38.7886 -106.9328 62° Northeast 446 513 37,000  Level Denver Center
Fri 01:35:30 AM 38.8481 -106.7942 61° Northeast 446 513 37,000  Level Denver Center
Fri 01:36:30 AM 38.9081 -106.6528 61° Northeast 443 510 37,000  Level Denver Center
Fri 01:37:30 AM 38.9739 -106.4989 61° Northeast 440 506 37,000 -793 Level Denver Center
Fri 01:38:31 AM 39.0286 -106.3678 62° Northeast 437 503 35,400 -2,182 Descending Denver Center
Fri 01:39:31 AM 39.0828 -106.2361 62° Northeast 436 502 32,600 -3,025 Descending Denver Center
Fri 01:40:32 AM 39.1464 -106.0817 62° Northeast 442 509 29,300 -2,826 Descending Denver Center
Fri 01:41:32 AM 39.2058 -105.9422 61° Northeast 444 511 26,900 -2,331 Descending Denver Center
Fri 01:42:33 AM 39.2636 -105.8025 62° Northeast 441 507 24,600 -1,835 Descending Denver Center
Fri 01:43:33 AM 39.3283 -105.6711 57° Northeast 432 497 23,200 -1,140 Descending Denver Center
Fri 01:44:34 AM 39.3969 -105.5436 55° Northeast 432 497 22,300 -1,041 Descending Denver Center
Fri 01:45:34 AM 39.4647 -105.4203 55° Northeast 429 494 21,100 -2,000 Descending Denver Center
Fri 01:46:34 AM 39.5308 -105.2975 55° Northeast 420 483 18,300 -2,777 Descending Denver Center
Fri 01:47:35 AM 39.5983 -105.1681 56° Northeast 405 466 15,500 -2,678 Descending Denver Center
Fri 01:48:35 AM 39.6606 -105.0544 55° Northeast 387 445 12,900 -2,231 Descending Denver Center
Fri 01:49:36 AM 39.7206 -104.9428 55° Northeast 380 437 11,000 -942 Descending Denver Center
Fri 01:50:36 AM 39.7733 -104.8411 56° Northeast 344 396 11,000 -450 Level Denver Center
Fri 01:51:36 AM 39.8489 -104.8092 18° North 294 338 10,100 -843 Descending Denver Center
Fri 01:52:37 AM 39.9239 -104.8061 North 267 307 9,300 -893 Descending Denver Center
Fri 01:53:37 AM 39.9825 -104.7911 11° North 211 243 8,300 -1,041 Descending Denver Center
Fri 01:54:38 AM 39.9867 -104.7275 85° East 177 204 7,200 -992 Descending Denver Center
Fri 01:55:38 AM 39.9539 -104.6981 145° Southeast 148 170 6,300 -750 Descending Denver Center
Fri 01:56:38 AM 39.9119 -104.6958 178° South 149 171 5,700 -496 Descending Denver Center
Fri 01:57:39 AM 39.8756 -104.6961 180° South 140 161 5,300 -393 Descending Denver Center
Fri 01:59:00 AM 39.8617 -104.6732 90° East  Level Estimated
Fri 02:06:00 AM 39.8617 -104.6732 90° East  Level Estimated
Fri 02:07:00 AM 39.8617 -104.6732 90° East  Level Estimated

Login

Don't have an account? Register now (free) for customized features, flight alerts, and more!